sensor_id;sensor_type;location;lat;lon;timestamp;temperature;humidity
42245;DHT22;27912;51.828;5.688;2024-02-23T00:02:18;4.30;99.90
42245;DHT22;27912;51.828;5.688;2024-02-23T00:04:44;4.30;99.90
42245;DHT22;27912;51.828;5.688;2024-02-23T00:07:10;4.30;99.90
42245;DHT22;27912;51.828;5.688;2024-02-23T00:09:36;4.40;99.90
42245;DHT22;27912;51.828;5.688;2024-02-23T00:12:02;4.40;99.90
42245;DHT22;27912;51.828;5.688;2024-02-23T00:14:28;4.40;99.90
42245;DHT22;27912;51.828;5.688;2024-02-23T00:16:56;4.40;99.90
42245;DHT22;27912;51.828;5.688;2024-02-23T00:19:22;4.40;99.90
42245;DHT22;27912;51.828;5.688;2024-02-23T00:21:49;4.40;99.90
42245;DHT22;27912;51.828;5.688;2024-02-23T00:24:16;4.40;99.90
42245;DHT22;27912;51.828;5.688;2024-02-23T00:26:42;4.40;99.90
42245;DHT22;27912;51.828;5.688;2024-02-23T00:29:08;4.40;99.90
42245;DHT22;27912;51.828;5.688;2024-02-23T00:31:34;4.40;99.90
42245;DHT22;27912;51.828;5.688;2024-02-23T00:34:02;4.40;99.90
42245;DHT22;27912;51.828;5.688;2024-02-23T00:36:28;4.40;99.90
42245;DHT22;27912;51.828;5.688;2024-02-23T00:38:53;4.40;99.90
42245;DHT22;27912;51.828;5.688;2024-02-23T00:41:19;4.40;99.90
42245;DHT22;27912;51.828;5.688;2024-02-23T00:43:44;4.40;99.90
42245;DHT22;27912;51.828;5.688;2024-02-23T00:46:10;4.40;99.90
42245;DHT22;27912;51.828;5.688;2024-02-23T00:48:36;4.40;99.90
42245;DHT22;27912;51.828;5.688;2024-02-23T00:51:02;4.30;99.90
42245;DHT22;27912;51.828;5.688;2024-02-23T00:53:30;4.30;99.90
42245;DHT22;27912;51.828;5.688;2024-02-23T00:55:55;4.30;99.90
42245;DHT22;27912;51.828;5.688;2024-02-23T00:58:21;4.30;99.90
42245;DHT22;27912;51.828;5.688;2024-02-23T01:00:46;4.30;99.90
42245;DHT22;27912;51.828;5.688;2024-02-23T01:03:12;4.30;99.90
42245;DHT22;27912;51.828;5.688;2024-02-23T01:05:38;4.30;99.90
42245;DHT22;27912;51.828;5.688;2024-02-23T01:08:05;4.40;99.90
42245;DHT22;27912;51.828;5.688;2024-02-23T01:10:30;4.40;99.90
42245;DHT22;27912;51.828;5.688;2024-02-23T01:12:56;4.40;99.90
42245;DHT22;27912;51.828;5.688;2024-02-23T01:15:22;4.40;99.90
42245;DHT22;27912;51.828;5.688;2024-02-23T01:17:48;4.40;99.90
42245;DHT22;27912;51.828;5.688;2024-02-23T01:20:14;4.40;99.90
42245;DHT22;27912;51.828;5.688;2024-02-23T01:22:39;4.50;99.90
42245;DHT22;27912;51.828;5.688;2024-02-23T01:25:05;4.40;99.90
42245;DHT22;27912;51.828;5.688;2024-02-23T01:27:31;4.40;99.90
42245;DHT22;27912;51.828;5.688;2024-02-23T01:29:57;4.40;99.90
42245;DHT22;27912;51.828;5.688;2024-02-23T01:32:22;4.40;99.90
42245;DHT22;27912;51.828;5.688;2024-02-23T01:34:48;4.40;99.90
42245;DHT22;27912;51.828;5.688;2024-02-23T01:37:14;4.40;99.90
42245;DHT22;27912;51.828;5.688;2024-02-23T01:39:39;4.40;99.90
42245;DHT22;27912;51.828;5.688;2024-02-23T01:42:05;4.40;99.90
42245;DHT22;27912;51.828;5.688;2024-02-23T01:44:31;4.40;99.90
42245;DHT22;27912;51.828;5.688;2024-02-23T01:46:56;4.40;99.90
42245;DHT22;27912;51.828;5.688;2024-02-23T01:49:22;4.40;99.90
42245;DHT22;27912;51.828;5.688;2024-02-23T01:51:57;4.40;99.90
42245;DHT22;27912;51.828;5.688;2024-02-23T01:54:24;4.40;99.90
42245;DHT22;27912;51.828;5.688;2024-02-23T01:56:50;4.40;99.90
42245;DHT22;27912;51.828;5.688;2024-02-23T01:59:16;4.40;99.90
42245;DHT22;27912;51.828;5.688;2024-02-23T02:01:43;4.40;99.90
42245;DHT22;27912;51.828;5.688;2024-02-23T02:04:10;4.40;99.90
42245;DHT22;27912;51.828;5.688;2024-02-23T02:06:36;4.40;99.90
42245;DHT22;27912;51.828;5.688;2024-02-23T02:09:02;4.40;99.90
42245;DHT22;27912;51.828;5.688;2024-02-23T02:11:28;4.40;99.90
42245;DHT22;27912;51.828;5.688;2024-02-23T02:13:53;4.40;99.90
42245;DHT22;27912;51.828;5.688;2024-02-23T02:16:19;4.40;99.90
42245;DHT22;27912;51.828;5.688;2024-02-23T02:18:44;4.40;99.90
42245;DHT22;27912;51.828;5.688;2024-02-23T02:21:11;4.50;99.90
42245;DHT22;27912;51.828;5.688;2024-02-23T02:23:37;4.50;99.90
42245;DHT22;27912;51.828;5.688;2024-02-23T02:26:03;4.50;99.90
42245;DHT22;27912;51.828;5.688;2024-02-23T02:28:29;4.50;99.90
42245;DHT22;27912;51.828;5.688;2024-02-23T02:30:55;4.50;99.90
42245;DHT22;27912;51.828;5.688;2024-02-23T02:33:21;4.50;99.90
42245;DHT22;27912;51.828;5.688;2024-02-23T02:35:48;4.40;99.90
42245;DHT22;27912;51.828;5.688;2024-02-23T02:38:13;4.40;99.90
42245;DHT22;27912;51.828;5.688;2024-02-23T02:40:39;4.40;99.90
42245;DHT22;27912;51.828;5.688;2024-02-23T02:43:05;4.40;99.90
42245;DHT22;27912;51.828;5.688;2024-02-23T02:45:32;4.40;99.90
42245;DHT22;27912;51.828;5.688;2024-02-23T02:47:59;4.40;99.90
42245;DHT22;27912;51.828;5.688;2024-02-23T02:50:25;4.40;99.90
42245;DHT22;27912;51.828;5.688;2024-02-23T02:52:50;4.40;99.90
42245;DHT22;27912;51.828;5.688;2024-02-23T02:55:16;4.50;99.90
42245;DHT22;27912;51.828;5.688;2024-02-23T02:57:44;4.50;99.90
42245;DHT22;27912;51.828;5.688;2024-02-23T03:00:10;4.40;99.90
42245;DHT22;27912;51.828;5.688;2024-02-23T03:02:36;4.40;99.90
42245;DHT22;27912;51.828;5.688;2024-02-23T03:05:02;4.40;99.90
42245;DHT22;27912;51.828;5.688;2024-02-23T03:07:27;4.50;99.90
42245;DHT22;27912;51.828;5.688;2024-02-23T03:09:53;4.40;99.90
42245;DHT22;27912;51.828;5.688;2024-02-23T03:12:19;4.40;99.90
42245;DHT22;27912;51.828;5.688;2024-02-23T03:14:45;4.40;99.90
42245;DHT22;27912;51.828;5.688;2024-02-23T03:17:10;4.40;99.90
42245;DHT22;27912;51.828;5.688;2024-02-23T03:19:36;4.40;99.90
42245;DHT22;27912;51.828;5.688;2024-02-23T03:22:02;4.40;99.90
42245;DHT22;27912;51.828;5.688;2024-02-23T03:24:28;4.40;99.90
42245;DHT22;27912;51.828;5.688;2024-02-23T03:26:53;4.40;99.90
42245;DHT22;27912;51.828;5.688;2024-02-23T03:29:19;4.40;99.90
42245;DHT22;27912;51.828;5.688;2024-02-23T03:31:45;4.40;99.90
42245;DHT22;27912;51.828;5.688;2024-02-23T03:34:11;4.40;99.90
42245;DHT22;27912;51.828;5.688;2024-02-23T03:36:38;4.40;99.90
42245;DHT22;27912;51.828;5.688;2024-02-23T03:39:04;4.40;99.90
42245;DHT22;27912;51.828;5.688;2024-02-23T03:41:29;4.40;99.90
42245;DHT22;27912;51.828;5.688;2024-02-23T03:43:55;4.40;99.90
42245;DHT22;27912;51.828;5.688;2024-02-23T03:46:20;4.40;99.90
42245;DHT22;27912;51.828;5.688;2024-02-23T03:48:47;4.40;99.90
42245;DHT22;27912;51.828;5.688;2024-02-23T03:51:12;4.40;99.90
42245;DHT22;27912;51.828;5.688;2024-02-23T03:53:38;4.40;99.90
42245;DHT22;27912;51.828;5.688;2024-02-23T03:56:04;4.40;99.90
42245;DHT22;27912;51.828;5.688;2024-02-23T03:58:29;4.40;99.90
42245;DHT22;27912;51.828;5.688;2024-02-23T04:00:55;4.40;99.90
42245;DHT22;27912;51.828;5.688;2024-02-23T04:03:21;4.40;99.90
42245;DHT22;27912;51.828;5.688;2024-02-23T04:05:46;4.30;99.90
42245;DHT22;27912;51.828;5.688;2024-02-23T04:08:12;4.30;99.90
42245;DHT22;27912;51.828;5.688;2024-02-23T04:10:38;4.40;99.90
42245;DHT22;27912;51.828;5.688;2024-02-23T04:13:03;4.40;99.90
42245;DHT22;27912;51.828;5.688;2024-02-23T04:15:29;4.40;99.90
42245;DHT22;27912;51.828;5.688;2024-02-23T04:17:54;4.40;99.90
42245;DHT22;27912;51.828;5.688;2024-02-23T04:20:20;4.40;99.90
42245;DHT22;27912;51.828;5.688;2024-02-23T04:22:46;4.40;99.90
42245;DHT22;27912;51.828;5.688;2024-02-23T04:25:12;4.40;99.90
42245;DHT22;27912;51.828;5.688;2024-02-23T04:27:37;4.40;99.90
42245;DHT22;27912;51.828;5.688;2024-02-23T04:30:04;4.40;99.90
42245;DHT22;27912;51.828;5.688;2024-02-23T04:32:29;4.40;99.90
42245;DHT22;27912;51.828;5.688;2024-02-23T04:34:55;4.40;99.90
42245;DHT22;27912;51.828;5.688;2024-02-23T04:37:21;4.40;99.90
42245;DHT22;27912;51.828;5.688;2024-02-23T04:39:46;4.40;99.90
42245;DHT22;27912;51.828;5.688;2024-02-23T04:42:12;4.40;99.90
42245;DHT22;27912;51.828;5.688;2024-02-23T04:44:38;4.40;99.90
42245;DHT22;27912;51.828;5.688;2024-02-23T04:47:03;4.50;99.90
42245;DHT22;27912;51.828;5.688;2024-02-23T04:49:29;4.50;99.90
42245;DHT22;27912;51.828;5.688;2024-02-23T04:51:54;4.60;99.90
42245;DHT22;27912;51.828;5.688;2024-02-23T04:54:20;4.60;99.90
42245;DHT22;27912;51.828;5.688;2024-02-23T04:56:47;4.60;99.90
42245;DHT22;27912;51.828;5.688;2024-02-23T04:59:13;4.70;99.90
42245;DHT22;27912;51.828;5.688;2024-02-23T05:01:39;4.70;99.90
42245;DHT22;27912;51.828;5.688;2024-02-23T05:04:04;4.80;99.90
42245;DHT22;27912;51.828;5.688;2024-02-23T05:06:30;4.80;99.90
42245;DHT22;27912;51.828;5.688;2024-02-23T05:08:56;4.80;99.90
42245;DHT22;27912;51.828;5.688;2024-02-23T05:11:21;4.80;99.90
42245;DHT22;27912;51.828;5.688;2024-02-23T05:13:47;4.90;99.90
42245;DHT22;27912;51.828;5.688;2024-02-23T05:16:16;4.90;99.90
42245;DHT22;27912;51.828;5.688;2024-02-23T05:18:41;5.00;99.90
42245;DHT22;27912;51.828;5.688;2024-02-23T05:21:07;5.00;99.90
42245;DHT22;27912;51.828;5.688;2024-02-23T05:23:33;5.00;99.90
42245;DHT22;27912;51.828;5.688;2024-02-23T05:25:59;5.10;99.90
42245;DHT22;27912;51.828;5.688;2024-02-23T05:28:24;5.10;99.90
42245;DHT22;27912;51.828;5.688;2024-02-23T05:30:51;5.10;99.90
42245;DHT22;27912;51.828;5.688;2024-02-23T05:33:16;5.20;99.90
42245;DHT22;27912;51.828;5.688;2024-02-23T05:35:46;5.20;99.90
42245;DHT22;27912;51.828;5.688;2024-02-23T05:38:14;5.20;99.90
42245;DHT22;27912;51.828;5.688;2024-02-23T05:40:39;5.30;99.90
42245;DHT22;27912;51.828;5.688;2024-02-23T05:43:05;5.30;99.90
42245;DHT22;27912;51.828;5.688;2024-02-23T05:45:31;5.30;99.90
42245;DHT22;27912;51.828;5.688;2024-02-23T05:47:56;5.40;99.90
42245;DHT22;27912;51.828;5.688;2024-02-23T05:50:22;5.40;99.90
42245;DHT22;27912;51.828;5.688;2024-02-23T05:52:47;5.40;99.90
42245;DHT22;27912;51.828;5.688;2024-02-23T05:55:13;5.40;99.90
42245;DHT22;27912;51.828;5.688;2024-02-23T05:57:39;5.40;99.90
42245;DHT22;27912;51.828;5.688;2024-02-23T06:00:06;5.40;99.90
42245;DHT22;27912;51.828;5.688;2024-02-23T06:02:32;5.40;99.90
42245;DHT22;27912;51.828;5.688;2024-02-23T06:04:58;5.40;99.90
42245;DHT22;27912;51.828;5.688;2024-02-23T06:07:24;5.40;99.90
42245;DHT22;27912;51.828;5.688;2024-02-23T06:09:57;5.40;99.90
42245;DHT22;27912;51.828;5.688;2024-02-23T06:12:23;5.40;99.90
42245;DHT22;27912;51.828;5.688;2024-02-23T06:14:51;5.40;99.90
42245;DHT22;27912;51.828;5.688;2024-02-23T06:17:16;5.40;99.90
42245;DHT22;27912;51.828;5.688;2024-02-23T06:19:42;5.40;99.90
42245;DHT22;27912;51.828;5.688;2024-02-23T06:22:08;5.40;99.90
42245;DHT22;27912;51.828;5.688;2024-02-23T06:24:35;5.40;99.90
42245;DHT22;27912;51.828;5.688;2024-02-23T06:27:01;5.40;99.90
42245;DHT22;27912;51.828;5.688;2024-02-23T06:29:28;5.40;99.90
42245;DHT22;27912;51.828;5.688;2024-02-23T06:31:54;5.50;99.90
42245;DHT22;27912;51.828;5.688;2024-02-23T06:34:20;5.50;99.90
42245;DHT22;27912;51.828;5.688;2024-02-23T06:36:45;5.50;99.90
42245;DHT22;27912;51.828;5.688;2024-02-23T06:39:11;5.50;99.90
42245;DHT22;27912;51.828;5.688;2024-02-23T06:41:38;5.50;99.90
42245;DHT22;27912;51.828;5.688;2024-02-23T06:44:04;5.60;99.90
42245;DHT22;27912;51.828;5.688;2024-02-23T06:46:30;5.60;99.90
42245;DHT22;27912;51.828;5.688;2024-02-23T06:48:55;5.60;99.90
42245;DHT22;27912;51.828;5.688;2024-02-23T06:51:21;5.60;99.90
42245;DHT22;27912;51.828;5.688;2024-02-23T06:53:47;5.70;99.90
42245;DHT22;27912;51.828;5.688;2024-02-23T06:56:13;5.70;99.90
42245;DHT22;27912;51.828;5.688;2024-02-23T06:58:38;5.70;99.90
42245;DHT22;27912;51.828;5.688;2024-02-23T07:01:04;5.80;99.90
42245;DHT22;27912;51.828;5.688;2024-02-23T07:03:32;5.80;99.90
42245;DHT22;27912;51.828;5.688;2024-02-23T07:05:58;5.80;99.90
42245;DHT22;27912;51.828;5.688;2024-02-23T07:08:24;5.80;99.90
42245;DHT22;27912;51.828;5.688;2024-02-23T07:10:49;5.80;99.90
42245;DHT22;27912;51.828;5.688;2024-02-23T07:13:15;5.80;99.90
42245;DHT22;27912;51.828;5.688;2024-02-23T07:15:42;5.80;99.90
42245;DHT22;27912;51.828;5.688;2024-02-23T07:18:08;5.90;99.90
42245;DHT22;27912;51.828;5.688;2024-02-23T07:20:37;5.90;99.90
42245;DHT22;27912;51.828;5.688;2024-02-23T07:23:04;5.90;99.90
42245;DHT22;27912;51.828;5.688;2024-02-23T07:25:30;5.90;99.90
42245;DHT22;27912;51.828;5.688;2024-02-23T07:27:56;6.00;99.90
42245;DHT22;27912;51.828;5.688;2024-02-23T07:30:22;6.00;99.90
42245;DHT22;27912;51.828;5.688;2024-02-23T07:32:48;6.00;99.90
42245;DHT22;27912;51.828;5.688;2024-02-23T07:35:13;6.00;99.90
42245;DHT22;27912;51.828;5.688;2024-02-23T07:37:39;6.10;99.90
42245;DHT22;27912;51.828;5.688;2024-02-23T07:40:05;6.10;99.90
42245;DHT22;27912;51.828;5.688;2024-02-23T07:42:34;6.10;99.90
42245;DHT22;27912;51.828;5.688;2024-02-23T07:45:04;6.20;99.90
42245;DHT22;27912;51.828;5.688;2024-02-23T07:47:33;6.20;99.90
42245;DHT22;27912;51.828;5.688;2024-02-23T07:49:58;6.20;99.90
42245;DHT22;27912;51.828;5.688;2024-02-23T07:52:24;6.20;99.90
42245;DHT22;27912;51.828;5.688;2024-02-23T07:54:51;6.30;99.90
42245;DHT22;27912;51.828;5.688;2024-02-23T07:57:18;6.30;99.90
42245;DHT22;27912;51.828;5.688;2024-02-23T07:59:44;6.30;99.90
42245;DHT22;27912;51.828;5.688;2024-02-23T08:02:09;6.40;99.90
42245;DHT22;27912;51.828;5.688;2024-02-23T08:04:35;6.40;99.90
42245;DHT22;27912;51.828;5.688;2024-02-23T08:07:01;6.50;99.90
42245;DHT22;27912;51.828;5.688;2024-02-23T08:09:27;6.50;99.90
42245;DHT22;27912;51.828;5.688;2024-02-23T08:11:52;6.50;99.90
42245;DHT22;27912;51.828;5.688;2024-02-23T08:14:18;6.50;99.90
42245;DHT22;27912;51.828;5.688;2024-02-23T08:16:44;6.50;99.90
42245;DHT22;27912;51.828;5.688;2024-02-23T08:19:09;6.50;99.90
42245;DHT22;27912;51.828;5.688;2024-02-23T08:21:35;6.50;99.90
42245;DHT22;27912;51.828;5.688;2024-02-23T08:24:01;6.50;99.90
42245;DHT22;27912;51.828;5.688;2024-02-23T08:26:28;6.50;99.90
42245;DHT22;27912;51.828;5.688;2024-02-23T08:28:53;6.50;99.90
42245;DHT22;27912;51.828;5.688;2024-02-23T08:31:19;6.50;99.90
42245;DHT22;27912;51.828;5.688;2024-02-23T08:33:45;6.60;99.90
42245;DHT22;27912;51.828;5.688;2024-02-23T08:36:10;6.70;99.90
42245;DHT22;27912;51.828;5.688;2024-02-23T08:38:36;6.90;99.90
42245;DHT22;27912;51.828;5.688;2024-02-23T08:41:02;7.00;99.90
42245;DHT22;27912;51.828;5.688;2024-02-23T08:43:28;7.10;99.90
42245;DHT22;27912;51.828;5.688;2024-02-23T08:45:54;7.10;99.90
42245;DHT22;27912;51.828;5.688;2024-02-23T08:48:19;7.10;99.90
42245;DHT22;27912;51.828;5.688;2024-02-23T08:50:45;7.10;99.90
42245;DHT22;27912;51.828;5.688;2024-02-23T08:53:11;7.20;99.90
42245;DHT22;27912;51.828;5.688;2024-02-23T08:55:36;7.20;99.90
42245;DHT22;27912;51.828;5.688;2024-02-23T08:58:02;7.20;99.90
42245;DHT22;27912;51.828;5.688;2024-02-23T09:00:27;7.20;99.90
42245;DHT22;27912;51.828;5.688;2024-02-23T09:02:53;7.20;99.90
42245;DHT22;27912;51.828;5.688;2024-02-23T09:05:19;7.10;99.90
42245;DHT22;27912;51.828;5.688;2024-02-23T09:07:46;7.10;99.90
42245;DHT22;27912;51.828;5.688;2024-02-23T09:10:12;7.10;99.90
42245;DHT22;27912;51.828;5.688;2024-02-23T09:12:37;7.10;99.90
42245;DHT22;27912;51.828;5.688;2024-02-23T09:15:04;7.10;99.90
42245;DHT22;27912;51.828;5.688;2024-02-23T09:17:30;7.10;99.90
42245;DHT22;27912;51.828;5.688;2024-02-23T09:19:56;7.10;99.90
42245;DHT22;27912;51.828;5.688;2024-02-23T09:22:21;7.10;99.90
42245;DHT22;27912;51.828;5.688;2024-02-23T09:24:48;7.00;99.90
42245;DHT22;27912;51.828;5.688;2024-02-23T09:27:13;7.10;99.90
42245;DHT22;27912;51.828;5.688;2024-02-23T09:29:40;7.10;99.90
42245;DHT22;27912;51.828;5.688;2024-02-23T09:32:09;7.10;99.90
42245;DHT22;27912;51.828;5.688;2024-02-23T09:34:35;7.10;99.90
42245;DHT22;27912;51.828;5.688;2024-02-23T09:37:00;7.10;99.90
42245;DHT22;27912;51.828;5.688;2024-02-23T09:39:26;7.20;99.90
42245;DHT22;27912;51.828;5.688;2024-02-23T09:41:55;7.20;99.90
42245;DHT22;27912;51.828;5.688;2024-02-23T09:44:22;7.30;99.90
42245;DHT22;27912;51.828;5.688;2024-02-23T09:46:48;7.30;99.90
42245;DHT22;27912;51.828;5.688;2024-02-23T09:49:15;7.40;99.90
42245;DHT22;27912;51.828;5.688;2024-02-23T09:51:44;7.40;99.90
42245;DHT22;27912;51.828;5.688;2024-02-23T09:54:10;7.40;99.90
42245;DHT22;27912;51.828;5.688;2024-02-23T09:56:36;7.50;99.90
42245;DHT22;27912;51.828;5.688;2024-02-23T09:59:03;7.50;99.90
42245;DHT22;27912;51.828;5.688;2024-02-23T10:01:30;7.60;99.90
42245;DHT22;27912;51.828;5.688;2024-02-23T10:03:57;7.70;99.90
42245;DHT22;27912;51.828;5.688;2024-02-23T10:06:24;7.60;99.90
42245;DHT22;27912;51.828;5.688;2024-02-23T10:08:50;7.50;99.90
42245;DHT22;27912;51.828;5.688;2024-02-23T10:11:21;7.50;99.90
42245;DHT22;27912;51.828;5.688;2024-02-23T10:13:48;7.40;99.90
42245;DHT22;27912;51.828;5.688;2024-02-23T10:16:21;7.40;99.90
42245;DHT22;27912;51.828;5.688;2024-02-23T10:18:47;7.30;99.90
42245;DHT22;27912;51.828;5.688;2024-02-23T10:21:16;7.40;99.90
42245;DHT22;27912;51.828;5.688;2024-02-23T10:23:44;7.30;99.90
42245;DHT22;27912;51.828;5.688;2024-02-23T10:26:10;7.30;99.90
42245;DHT22;27912;51.828;5.688;2024-02-23T10:28:37;7.30;99.90
42245;DHT22;27912;51.828;5.688;2024-02-23T10:31:05;7.30;99.90
42245;DHT22;27912;51.828;5.688;2024-02-23T10:33:31;7.30;99.90
42245;DHT22;27912;51.828;5.688;2024-02-23T10:35:57;7.40;99.90
42245;DHT22;27912;51.828;5.688;2024-02-23T10:38:26;7.50;99.90
42245;DHT22;27912;51.828;5.688;2024-02-23T10:40:54;7.70;99.90
42245;DHT22;27912;51.828;5.688;2024-02-23T10:43:29;7.70;99.90
42245;DHT22;27912;51.828;5.688;2024-02-23T10:45:56;7.70;99.90
42245;DHT22;27912;51.828;5.688;2024-02-23T10:48:23;7.80;99.90
42245;DHT22;27912;51.828;5.688;2024-02-23T10:50:50;7.70;99.90
42245;DHT22;27912;51.828;5.688;2024-02-23T10:53:16;7.70;99.90
42245;DHT22;27912;51.828;5.688;2024-02-23T10:55:45;7.70;99.90
42245;DHT22;27912;51.828;5.688;2024-02-23T10:58:11;7.70;99.90
42245;DHT22;27912;51.828;5.688;2024-02-23T11:00:39;7.60;99.90
42245;DHT22;27912;51.828;5.688;2024-02-23T11:03:06;7.60;99.90
42245;DHT22;27912;51.828;5.688;2024-02-23T11:05:33;7.60;99.90
42245;DHT22;27912;51.828;5.688;2024-02-23T11:07:59;7.60;99.90
42245;DHT22;27912;51.828;5.688;2024-02-23T11:10:24;7.60;99.90
42245;DHT22;27912;51.828;5.688;2024-02-23T11:12:57;7.70;99.90
42245;DHT22;27912;51.828;5.688;2024-02-23T11:15:28;7.80;99.90
42245;DHT22;27912;51.828;5.688;2024-02-23T11:17:54;7.90;99.90
42245;DHT22;27912;51.828;5.688;2024-02-23T11:20:20;8.00;99.90
42245;DHT22;27912;51.828;5.688;2024-02-23T11:22:52;7.90;99.90
42245;DHT22;27912;51.828;5.688;2024-02-23T11:25:26;8.00;99.90
42245;DHT22;27912;51.828;5.688;2024-02-23T11:27:52;8.00;99.90
42245;DHT22;27912;51.828;5.688;2024-02-23T11:30:17;8.00;99.90
42245;DHT22;27912;51.828;5.688;2024-02-23T11:32:45;8.10;99.90
42245;DHT22;27912;51.828;5.688;2024-02-23T11:35:17;8.10;99.90
42245;DHT22;27912;51.828;5.688;2024-02-23T11:37:54;8.20;99.90
42245;DHT22;27912;51.828;5.688;2024-02-23T11:40:28;8.30;99.90
42245;DHT22;27912;51.828;5.688;2024-02-23T11:42:57;8.40;99.90
42245;DHT22;27912;51.828;5.688;2024-02-23T11:45:24;8.50;99.90
42245;DHT22;27912;51.828;5.688;2024-02-23T11:47:50;8.50;99.90
42245;DHT22;27912;51.828;5.688;2024-02-23T11:50:16;8.40;99.90
42245;DHT22;27912;51.828;5.688;2024-02-23T11:52:45;8.40;99.90
42245;DHT22;27912;51.828;5.688;2024-02-23T11:55:11;8.30;99.90
42245;DHT22;27912;51.828;5.688;2024-02-23T11:57:38;8.30;99.90
42245;DHT22;27912;51.828;5.688;2024-02-23T12:00:04;8.30;99.90
42245;DHT22;27912;51.828;5.688;2024-02-23T12:02:33;8.30;99.90
42245;DHT22;27912;51.828;5.688;2024-02-23T12:05:00;8.20;99.90
42245;DHT22;27912;51.828;5.688;2024-02-23T12:07:25;8.20;99.90
42245;DHT22;27912;51.828;5.688;2024-02-23T12:09:53;8.20;99.90
42245;DHT22;27912;51.828;5.688;2024-02-23T12:12:19;8.20;99.90
42245;DHT22;27912;51.828;5.688;2024-02-23T12:14:44;8.20;99.90
42245;DHT22;27912;51.828;5.688;2024-02-23T12:17:10;8.10;99.90
42245;DHT22;27912;51.828;5.688;2024-02-23T12:19:40;8.10;99.90
42245;DHT22;27912;51.828;5.688;2024-02-23T12:22:05;8.20;99.90
42245;DHT22;27912;51.828;5.688;2024-02-23T12:24:31;8.20;99.90
42245;DHT22;27912;51.828;5.688;2024-02-23T12:26:57;8.20;99.90
42245;DHT22;27912;51.828;5.688;2024-02-23T12:29:23;8.20;99.90
42245;DHT22;27912;51.828;5.688;2024-02-23T12:31:49;8.30;99.90
42245;DHT22;27912;51.828;5.688;2024-02-23T12:34:15;8.30;99.90
42245;DHT22;27912;51.828;5.688;2024-02-23T12:36:41;8.30;99.90
42245;DHT22;27912;51.828;5.688;2024-02-23T12:39:06;8.40;99.90
42245;DHT22;27912;51.828;5.688;2024-02-23T12:41:32;8.50;99.90
42245;DHT22;27912;51.828;5.688;2024-02-23T12:43:58;8.50;99.90
42245;DHT22;27912;51.828;5.688;2024-02-23T12:46:24;8.50;99.90
42245;DHT22;27912;51.828;5.688;2024-02-23T12:48:50;8.50;99.90
42245;DHT22;27912;51.828;5.688;2024-02-23T12:51:16;8.40;99.90
42245;DHT22;27912;51.828;5.688;2024-02-23T12:53:42;8.40;99.90
42245;DHT22;27912;51.828;5.688;2024-02-23T12:56:10;8.40;99.90
42245;DHT22;27912;51.828;5.688;2024-02-23T12:58:42;8.30;99.90
42245;DHT22;27912;51.828;5.688;2024-02-23T13:01:08;8.30;99.90
42245;DHT22;27912;51.828;5.688;2024-02-23T13:03:35;8.40;99.90
42245;DHT22;27912;51.828;5.688;2024-02-23T13:06:01;8.50;99.90
42245;DHT22;27912;51.828;5.688;2024-02-23T13:08:28;8.60;99.90
42245;DHT22;27912;51.828;5.688;2024-02-23T13:10:54;8.60;99.90
42245;DHT22;27912;51.828;5.688;2024-02-23T13:13:21;8.60;99.90
42245;DHT22;27912;51.828;5.688;2024-02-23T13:15:48;8.60;99.90
42245;DHT22;27912;51.828;5.688;2024-02-23T13:18:13;8.60;99.90
42245;DHT22;27912;51.828;5.688;2024-02-23T13:20:40;8.70;99.90
42245;DHT22;27912;51.828;5.688;2024-02-23T13:23:09;8.80;99.90
42245;DHT22;27912;51.828;5.688;2024-02-23T13:25:39;8.80;99.90
42245;DHT22;27912;51.828;5.688;2024-02-23T13:28:05;8.80;99.90
42245;DHT22;27912;51.828;5.688;2024-02-23T13:30:32;8.80;99.90
42245;DHT22;27912;51.828;5.688;2024-02-23T13:32:57;8.90;99.90
42245;DHT22;27912;51.828;5.688;2024-02-23T13:35:23;8.90;99.90
42245;DHT22;27912;51.828;5.688;2024-02-23T13:37:49;9.00;99.90
42245;DHT22;27912;51.828;5.688;2024-02-23T13:40:14;9.10;99.90
42245;DHT22;27912;51.828;5.688;2024-02-23T13:42:40;9.20;99.90
42245;DHT22;27912;51.828;5.688;2024-02-23T13:45:07;9.30;99.90
42245;DHT22;27912;51.828;5.688;2024-02-23T13:47:33;9.40;99.90
42245;DHT22;27912;51.828;5.688;2024-02-23T13:49:59;9.40;99.90
42245;DHT22;27912;51.828;5.688;2024-02-23T13:52:25;9.40;99.90
42245;DHT22;27912;51.828;5.688;2024-02-23T13:54:50;9.30;99.90
42245;DHT22;27912;51.828;5.688;2024-02-23T13:57:16;9.30;99.90
42245;DHT22;27912;51.828;5.688;2024-02-23T13:59:42;9.30;99.90
42245;DHT22;27912;51.828;5.688;2024-02-23T14:02:07;9.20;99.90
42245;DHT22;27912;51.828;5.688;2024-02-23T14:04:33;9.20;99.90
42245;DHT22;27912;51.828;5.688;2024-02-23T14:06:58;9.30;99.90
42245;DHT22;27912;51.828;5.688;2024-02-23T14:09:24;9.40;99.90
42245;DHT22;27912;51.828;5.688;2024-02-23T14:11:50;9.40;99.90
42245;DHT22;27912;51.828;5.688;2024-02-23T14:14:16;9.30;99.90
42245;DHT22;27912;51.828;5.688;2024-02-23T14:16:41;9.10;99.90
42245;DHT22;27912;51.828;5.688;2024-02-23T14:19:07;9.10;99.90
42245;DHT22;27912;51.828;5.688;2024-02-23T14:21:33;9.00;99.90
42245;DHT22;27912;51.828;5.688;2024-02-23T14:24:01;8.90;99.90
42245;DHT22;27912;51.828;5.688;2024-02-23T14:26:27;8.90;99.90
42245;DHT22;27912;51.828;5.688;2024-02-23T14:28:52;8.80;99.90
42245;DHT22;27912;51.828;5.688;2024-02-23T14:31:18;8.80;99.90
42245;DHT22;27912;51.828;5.688;2024-02-23T14:33:43;8.70;99.90
42245;DHT22;27912;51.828;5.688;2024-02-23T14:36:09;8.60;99.90
42245;DHT22;27912;51.828;5.688;2024-02-23T14:38:34;8.50;99.90
42245;DHT22;27912;51.828;5.688;2024-02-23T14:41:00;8.40;99.90
42245;DHT22;27912;51.828;5.688;2024-02-23T14:43:26;8.50;99.90
42245;DHT22;27912;51.828;5.688;2024-02-23T14:45:51;8.50;99.90
42245;DHT22;27912;51.828;5.688;2024-02-23T14:48:18;8.50;99.90
42245;DHT22;27912;51.828;5.688;2024-02-23T14:50:43;8.30;99.90
42245;DHT22;27912;51.828;5.688;2024-02-23T14:53:09;8.30;99.90
42245;DHT22;27912;51.828;5.688;2024-02-23T14:55:36;8.30;99.90
42245;DHT22;27912;51.828;5.688;2024-02-23T14:58:02;8.20;99.90
42245;DHT22;27912;51.828;5.688;2024-02-23T15:00:28;8.20;99.90
42245;DHT22;27912;51.828;5.688;2024-02-23T15:02:56;8.20;99.90
42245;DHT22;27912;51.828;5.688;2024-02-23T15:05:22;8.30;99.90
42245;DHT22;27912;51.828;5.688;2024-02-23T15:07:48;8.30;99.90
42245;DHT22;27912;51.828;5.688;2024-02-23T15:10:13;8.40;99.90
42245;DHT22;27912;51.828;5.688;2024-02-23T15:12:39;8.40;99.90
42245;DHT22;27912;51.828;5.688;2024-02-23T15:15:05;8.40;99.90
42245;DHT22;27912;51.828;5.688;2024-02-23T15:17:32;8.40;99.90
42245;DHT22;27912;51.828;5.688;2024-02-23T15:19:58;8.30;99.90
42245;DHT22;27912;51.828;5.688;2024-02-23T15:22:23;8.30;99.90
42245;DHT22;27912;51.828;5.688;2024-02-23T15:24:51;8.30;99.90
42245;DHT22;27912;51.828;5.688;2024-02-23T15:27:16;8.30;99.90
42245;DHT22;27912;51.828;5.688;2024-02-23T15:29:43;8.30;99.90
42245;DHT22;27912;51.828;5.688;2024-02-23T15:32:09;8.30;99.90
42245;DHT22;27912;51.828;5.688;2024-02-23T15:34:36;8.40;99.90
42245;DHT22;27912;51.828;5.688;2024-02-23T15:37:01;8.40;99.90
42245;DHT22;27912;51.828;5.688;2024-02-23T15:39:27;8.50;99.90